Time;durP1;ratioP1;P1;durP2;ratioP2;P2;SDS_P1;SDS_P2;PMS_P1;PMS_P2;Temp;Humidity;BMP_temperature;BMP_pressure;BME280_temperature;BME280_humidity;BME280_pressure;Samples;Min_cycle;Max_cycle;Signal;HPM_P1;HPM_P2
2022/12/28 00:01:45;;;;;;;19.55;5.78;;;;;;;;;;5008953;28;99455;-80
2022/12/28 00:04:13;;;;;;;11.23;5.90;;;;;;;;;;5009256;28;98225;-80
2022/12/28 00:06:39;;;;;;;8.88;5.55;;;;;;;;;;5011770;28;98836;-81
2022/12/28 00:09:07;;;;;;;13.02;5.50;;;;;;;;;;5008461;28;100010;-79
2022/12/28 00:11:33;;;;;;;9.55;6.63;;;;;;;;;;5008830;28;98469;-80
2022/12/28 00:14:00;;;;;;;9.30;5.72;;;;;;;;;;5009033;28;99410;-80
2022/12/28 00:16:30;;;;;;;12.60;5.75;;;;;;;;;;5008682;28;98914;-80
2022/12/28 00:18:58;;;;;;;11.85;6.57;;;;;;;;;;5008941;28;98300;-79
2022/12/28 00:21:25;;;;;;;10.50;5.35;;;;;;;;;;5007003;28;98736;-79
2022/12/28 00:23:52;;;;;;;13.07;5.28;;;;;;;;;;5008932;28;100258;-80
2022/12/28 00:26:22;;;;;;;14.65;5.15;;;;;;;;;;5008600;28;98084;-79
2022/12/28 00:28:49;;;;;;;8.13;5.22;;;;;;;;;;5010979;28;98823;-80
2022/12/28 00:31:16;;;;;;;11.55;5.30;;;;;;;;;;5007450;28;98436;-79
2022/12/28 00:33:42;;;;;;;6.90;5.53;;;;;;;;;;5007339;28;99322;-80
2022/12/28 00:36:11;;;;;;;13.63;4.97;;;;;;;;;;5007274;28;99257;-80
2022/12/28 00:38:38;;;;;;;10.90;5.15;;;;;;;;;;5007271;28;98365;-80
2022/12/28 00:41:05;;;;;;;10.27;5.90;;;;;;;;;;5007350;28;99267;-80
2022/12/28 00:43:31;;;;;;;9.18;4.72;;;;;;;;;;5007500;28;99040;-80
2022/12/28 00:45:57;;;;;;;8.73;4.95;;;;;;;;;;5007925;28;98428;-80
2022/12/28 00:48:24;;;;;;;11.15;5.10;;;;;;;;;;5007382;28;99158;-80
2022/12/28 00:50:51;;;;;;;7.00;5.07;;;;;;;;;;5009724;28;99236;-80
2022/12/28 00:53:17;;;;;;;10.68;4.97;;;;;;;;;;5008384;28;98408;-81
2022/12/28 00:55:43;;;;;;;15.75;4.90;;;;;;;;;;5007482;28;98799;-80
2022/12/28 00:58:10;;;;;;;10.75;5.20;;;;;;;;;;5006372;28;98093;-80
2022/12/28 01:00:36;;;;;;;12.13;4.85;;;;;;;;;;5008068;28;98479;-80
2022/12/28 01:03:03;;;;;;;8.07;5.07;;;;;;;;;;5006312;28;101837;-80
2022/12/28 01:05:29;;;;;;;8.45;4.53;;;;;;;;;;5008528;28;98955;-81
2022/12/28 01:07:56;;;;;;;7.00;4.50;;;;;;;;;;5007921;28;99316;-81
2022/12/28 01:10:22;;;;;;;12.95;4.53;;;;;;;;;;5009079;28;101550;-80
2022/12/28 01:12:48;;;;;;;12.02;4.30;;;;;;;;;;5007263;28;99507;-80
2022/12/28 01:15:15;;;;;;;9.00;4.72;;;;;;;;;;5008793;28;99032;-79
2022/12/28 01:17:41;;;;;;;12.75;5.65;;;;;;;;;;5007642;28;98791;-80
2022/12/28 01:20:08;;;;;;;11.05;4.75;;;;;;;;;;5007457;28;98986;-80
2022/12/28 01:22:34;;;;;;;10.18;5.18;;;;;;;;;;5008179;28;99988;-80
2022/12/28 01:25:00;;;;;;;9.95;4.63;;;;;;;;;;5007967;28;98240;-79
2022/12/28 01:27:27;;;;;;;8.23;4.63;;;;;;;;;;5008380;28;98599;-80
2022/12/28 01:29:53;;;;;;;7.82;5.40;;;;;;;;;;5006763;28;101118;-80
2022/12/28 01:32:20;;;;;;;8.00;5.28;;;;;;;;;;5009375;28;98466;-80
2022/12/28 01:34:47;;;;;;;9.35;5.63;;;;;;;;;;5006890;28;98815;-80
2022/12/28 01:37:14;;;;;;;8.23;5.22;;;;;;;;;;5008136;28;98207;-80
2022/12/28 01:39:40;;;;;;;16.15;6.50;;;;;;;;;;5005846;28;101407;-80
2022/12/28 01:42:14;;;;;;;13.45;5.47;;;;;;;;;;5007840;28;98827;-80
2022/12/28 01:44:41;;;;;;;12.23;5.63;;;;;;;;;;5007333;28;98708;-79
2022/12/28 01:47:13;;;;;;;10.70;5.53;;;;;;;;;;5006398;28;98777;-79
2022/12/28 01:49:39;;;;;;;11.57;5.50;;;;;;;;;;5007697;28;98911;-79
2022/12/28 01:52:11;;;;;;;8.45;5.35;;;;;;;;;;5007623;28;98227;-80
2022/12/28 01:54:41;;;;;;;8.65;5.90;;;;;;;;;;5009507;28;100188;-79
2022/12/28 01:57:07;;;;;;;10.02;5.72;;;;;;;;;;5008036;28;98238;-80
2022/12/28 01:59:37;;;;;;;8.48;5.45;;;;;;;;;;5006531;28;98695;-80
2022/12/28 02:02:03;;;;;;;11.00;5.93;;;;;;;;;;5007604;28;100011;-80
2022/12/28 02:04:30;;;;;;;9.88;5.78;;;;;;;;;;5007686;28;98530;-80
2022/12/28 02:06:56;;;;;;;14.55;6.53;;;;;;;;;;5007297;28;98453;-80
2022/12/28 02:09:28;;;;;;;7.43;6.15;;;;;;;;;;5006443;28;101571;-80
2022/12/28 02:11:55;;;;;;;12.57;6.40;;;;;;;;;;5008281;28;98360;-80
2022/12/28 02:14:21;;;;;;;11.35;6.43;;;;;;;;;;5005731;28;100620;-79
2022/12/28 02:16:50;;;;;;;6.22;5.68;;;;;;;;;;5010762;28;98902;-79
2022/12/28 02:19:20;;;;;;;10.20;7.32;;;;;;;;;;5005688;28;100362;-81
2022/12/28 02:22:05;;;;;;;11.63;7.35;;;;;;;;;;5006145;28;99926;-79
2022/12/28 02:24:33;;;;;;;12.00;7.18;;;;;;;;;;5006597;28;98350;-79
2022/12/28 02:27:06;;;;;;;13.98;7.90;;;;;;;;;;5005172;28;100529;-79
2022/12/28 02:29:33;;;;;;;8.95;7.22;;;;;;;;;;5005600;28;100997;-80
2022/12/28 02:32:22;;;;;;;12.32;7.70;;;;;;;;;;5006136;28;98301;-79
2022/12/28 02:35:07;;;;;;;12.30;7.70;;;;;;;;;;5005438;28;99499;-80
2022/12/28 02:37:41;;;;;;;7.63;6.43;;;;;;;;;;5005442;28;99151;-80
2022/12/28 02:40:10;;;;;;;13.50;6.88;;;;;;;;;;5010951;28;98170;-79
2022/12/28 02:42:37;;;;;;;9.95;7.45;;;;;;;;;;5006634;28;98955;-80
2022/12/28 02:50:43;;;;;;;10.45;7.07;;;;;;;;;;5006525;28;99726;-80
2022/12/28 02:53:39;;;;;;;8.95;6.65;;;;;;;;;;5007461;28;98152;-80
2022/12/28 02:56:09;;;;;;;10.38;7.32;;;;;;;;;;4950994;28;99011;-80
2022/12/28 02:58:38;;;;;;;7.78;7.15;;;;;;;;;;5009330;28;101914;-80
2022/12/28 03:01:10;;;;;;;13.55;7.78;;;;;;;;;;5010516;28;98302;-80
2022/12/28 03:03:37;;;;;;;11.23;7.63;;;;;;;;;;5011436;28;99927;-80
2022/12/28 03:09:15;;;;;;;14.45;8.65;;;;;;;;;;5009624;28;98486;-80
2022/12/28 03:11:47;;;;;;;9.32;8.23;;;;;;;;;;5008419;28;101429;-80
2022/12/28 03:14:18;;;;;;;9.48;7.88;;;;;;;;;;5009162;28;98340;-80
2022/12/28 03:33:41;;;;;;;13.88;10.30;;;;;;;;;;5008304;28;99886;-81
2022/12/28 03:36:09;;;;;;;12.30;11.00;;;;;;;;;;5009142;28;98438;-81
2022/12/28 03:38:40;;;;;;;12.95;10.52;;;;;;;;;;5009145;28;98450;-81
2022/12/28 03:41:08;;;;;;;14.00;11.18;;;;;;;;;;5008533;28;101073;-80
2022/12/28 03:43:44;;;;;;;17.48;11.10;;;;;;;;;;5007795;28;98368;-80
2022/12/28 03:46:23;;;;;;;14.27;10.02;;;;;;;;;;5008010;28;101066;-81
2022/12/28 03:48:50;;;;;;;14.48;11.82;;;;;;;;;;5011738;28;99084;-81
2022/12/28 03:51:19;;;;;;;15.07;12.02;;;;;;;;;;5007759;28;98539;-81
2022/12/28 03:53:49;;;;;;;14.15;12.25;;;;;;;;;;5008072;28;99010;-81
2022/12/28 03:56:20;;;;;;;13.82;12.50;;;;;;;;;;5008606;28;98449;-81
2022/12/28 03:58:47;;;;;;;20.92;13.40;;;;;;;;;;5007530;28;100284;-81
2022/12/28 04:01:16;;;;;;;15.48;13.13;;;;;;;;;;5008692;28;98963;-81
2022/12/28 04:03:43;;;;;;;14.77;13.00;;;;;;;;;;5007851;28;98363;-81
2022/12/28 04:06:15;;;;;;;19.13;13.70;;;;;;;;;;5007623;28;100588;-81
2022/12/28 04:08:42;;;;;;;17.02;15.10;;;;;;;;;;5006258;28;101642;-81
2022/12/28 04:11:09;;;;;;;19.88;13.65;;;;;;;;;;5011468;28;98294;-81
2022/12/28 04:13:36;;;;;;;18.83;12.45;;;;;;;;;;5007314;28;98998;-81
2022/12/28 04:16:09;;;;;;;18.83;14.50;;;;;;;;;;5007282;28;98358;-80
2022/12/28 04:18:36;;;;;;;16.90;14.38;;;;;;;;;;5007866;28;101042;-80
2022/12/28 04:21:03;;;;;;;18.10;14.98;;;;;;;;;;5008623;28;99357;-80
2022/12/28 04:23:30;;;;;;;16.33;14.18;;;;;;;;;;5008299;28;98359;-80
2022/12/28 04:26:13;;;;;;;20.23;16.27;;;;;;;;;;5007450;28;98520;-79
2022/12/28 04:28:41;;;;;;;14.27;12.80;;;;;;;;;;5005880;28;101258;-79
2022/12/28 04:31:27;;;;;;;16.75;14.35;;;;;;;;;;5006578;28;98145;-79
2022/12/28 04:34:05;;;;;;;15.25;13.43;;;;;;;;;;5008273;28;100933;-79
2022/12/28 04:36:38;;;;;;;14.80;13.25;;;;;;;;;;5006697;28;98503;-79
2022/12/28 04:39:08;;;;;;;18.07;14.60;;;;;;;;;;5006900;28;99095;-78
2022/12/28 04:41:34;;;;;;;15.85;11.65;;;;;;;;;;5006282;28;99800;-77
2022/12/28 04:44:01;;;;;;;17.58;15.27;;;;;;;;;;5007699;28;98351;-77
2022/12/28 04:46:27;;;;;;;19.63;17.45;;;;;;;;;;5007925;28;99632;-77
2022/12/28 04:48:54;;;;;;;21.90;17.27;;;;;;;;;;5006778;28;100228;-78
2022/12/28 04:51:21;;;;;;;34.70;26.80;;;;;;;;;;5008157;28;98487;-77
2022/12/28 04:53:48;;;;;;;23.88;21.38;;;;;;;;;;5006431;28;98768;-78
2022/12/28 04:56:14;;;;;;;24.38;20.70;;;;;;;;;;5010195;28;100763;-76
2022/12/28 04:58:41;;;;;;;25.55;21.15;;;;;;;;;;5005819;28;98164;-76
2022/12/28 05:01:09;;;;;;;17.98;16.05;;;;;;;;;;5006974;28;99308;-77
2022/12/28 05:03:36;;;;;;;22.80;19.08;;;;;;;;;;5006430;28;98432;-77
2022/12/28 05:06:04;;;;;;;23.63;17.88;;;;;;;;;;5007108;28;99239;-77
2022/12/28 05:08:31;;;;;;;19.95;14.38;;;;;;;;;;5006702;28;101349;-77
2022/12/28 05:11:00;;;;;;;20.15;15.60;;;;;;;;;;5006626;28;98306;-77
2022/12/28 05:13:27;;;;;;;14.90;13.20;;;;;;;;;;5007310;28;99414;-78
2022/12/28 05:15:54;;;;;;;18.70;15.90;;;;;;;;;;5005969;28;99323;-77
2022/12/28 05:18:20;;;;;;;16.52;13.57;;;;;;;;;;5010781;28;99410;-77
2022/12/28 05:20:46;;;;;;;27.45;16.30;;;;;;;;;;5006124;28;100063;-78
2022/12/28 05:23:13;;;;;;;16.73;14.85;;;;;;;;;;5006074;28;99744;-78
2022/12/28 05:25:39;;;;;;;12.63;11.40;;;;;;;;;;5007279;28;99694;-78
2022/12/28 05:28:06;;;;;;;14.30;11.68;;;;;;;;;;5007113;28;99906;-78
2022/12/28 05:30:32;;;;;;;14.50;11.57;;;;;;;;;;5005961;28;98307;-76
2022/12/28 05:32:58;;;;;;;12.15;10.75;;;;;;;;;;5007283;28;99500;-76
2022/12/28 05:35:25;;;;;;;13.40;10.85;;;;;;;;;;5005931;28;99292;-77
2022/12/28 05:37:51;;;;;;;9.40;8.00;;;;;;;;;;5008938;28;98450;-76
2022/12/28 05:40:17;;;;;;;13.80;10.50;;;;;;;;;;5006620;28;99128;-77
2022/12/28 05:42:44;;;;;;;11.27;10.05;;;;;;;;;;5006349;28;98294;-77
2022/12/28 05:45:17;;;;;;;13.05;9.95;;;;;;;;;;5006133;28;98578;-77
2022/12/28 05:47:43;;;;;;;17.23;9.50;;;;;;;;;;5005283;28;100038;-77
2022/12/28 05:50:09;;;;;;;12.70;8.98;;;;;;;;;;5006608;28;99207;-77
2022/12/28 05:52:36;;;;;;;10.32;8.15;;;;;;;;;;5005859;28;99512;-77
2022/12/28 05:55:04;;;;;;;9.98;8.20;;;;;;;;;;5006265;28;100144;-77
2022/12/28 05:57:30;;;;;;;12.10;6.60;;;;;;;;;;5007450;28;98339;-77
2022/12/28 05:59:57;;;;;;;12.68;9.02;;;;;;;;;;5009811;28;99256;-77
2022/12/28 06:02:26;;;;;;;8.18;7.45;;;;;;;;;;5007147;28;98824;-77
2022/12/28 06:04:53;;;;;;;11.20;8.02;;;;;;;;;;5007460;28;98695;-77
2022/12/28 06:07:19;;;;;;;7.85;6.93;;;;;;;;;;5007076;28;99785;-77
2022/12/28 06:09:46;;;;;;;11.38;7.82;;;;;;;;;;5006860;28;98280;-77
2022/12/28 06:12:12;;;;;;;8.30;7.47;;;;;;;;;;5006259;28;98939;-77
2022/12/28 06:14:38;;;;;;;7.93;7.13;;;;;;;;;;5007201;28;99878;-77
2022/12/28 06:17:05;;;;;;;11.27;8.60;;;;;;;;;;5007179;28;98321;-77
2022/12/28 06:19:31;;;;;;;10.48;7.75;;;;;;;;;;5006677;28;99745;-77
2022/12/28 06:21:57;;;;;;;7.55;6.80;;;;;;;;;;5010633;28;100040;-76
2022/12/28 06:24:24;;;;;;;11.35;6.43;;;;;;;;;;5007106;28;99728;-76
2022/12/28 06:26:50;;;;;;;9.60;6.13;;;;;;;;;;5006701;28;100103;-77
2022/12/28 06:29:16;;;;;;;11.02;5.82;;;;;;;;;;5007649;28;98357;-77
2022/12/28 06:31:45;;;;;;;6.43;5.60;;;;;;;;;;5006390;28;98519;-77
2022/12/28 06:34:12;;;;;;;7.03;5.75;;;;;;;;;;5006632;28;99983;-76
2022/12/28 06:36:40;;;;;;;7.03;5.15;;;;;;;;;;5005992;28;98255;-76
2022/12/28 06:39:08;;;;;;;6.07;5.57;;;;;;;;;;5007289;28;98746;-76
2022/12/28 06:41:34;;;;;;;8.30;5.07;;;;;;;;;;5006188;28;100062;-76
2022/12/28 06:44:04;;;;;;;5.32;4.82;;;;;;;;;;5010295;28;98345;-76
2022/12/28 06:46:30;;;;;;;4.45;3.85;;;;;;;;;;5006623;28;100107;-76
2022/12/28 06:48:57;;;;;;;8.73;5.07;;;;;;;;;;5006507;28;98273;-77
2022/12/28 06:51:25;;;;;;;9.05;5.13;;;;;;;;;;5006809;28;98493;-77
2022/12/28 06:53:51;;;;;;;6.95;5.22;;;;;;;;;;5007049;28;100274;-77
2022/12/28 06:56:19;;;;;;;5.18;4.55;;;;;;;;;;5006480;28;98258;-76
2022/12/28 06:58:46;;;;;;;7.55;5.63;;;;;;;;;;5006290;28;98764;-76
2022/12/28 07:01:20;;;;;;;8.20;6.85;;;;;;;;;;5005752;28;99598;-76
2022/12/28 07:03:47;;;;;;;6.68;6.07;;;;;;;;;;5006970;28;98275;-77
2022/12/28 07:06:15;;;;;;;6.40;5.90;;;;;;;;;;5009910;28;99996;-77
2022/12/28 07:08:42;;;;;;;6.35;5.75;;;;;;;;;;5005547;28;98735;-77
2022/12/28 07:11:13;;;;;;;6.35;5.80;;;;;;;;;;5006780;28;99485;-77
2022/12/28 07:13:39;;;;;;;7.85;5.72;;;;;;;;;;5006373;28;100115;-78
2022/12/28 07:16:07;;;;;;;6.30;5.80;;;;;;;;;;5006537;28;98167;-78
2022/12/28 07:18:33;;;;;;;6.53;5.93;;;;;;;;;;5008119;28;99638;-76
2022/12/28 07:21:10;;;;;;;5.55;4.93;;;;;;;;;;5008038;28;99863;-77
2022/12/28 07:23:37;;;;;;;9.82;5.00;;;;;;;;;;5006903;28;98518;-77
2022/12/28 07:26:04;;;;;;;7.70;4.60;;;;;;;;;;5007711;28;99432;-77
2022/12/28 07:28:31;;;;;;;9.07;5.13;;;;;;;;;;5010617;28;98525;-77
2022/12/28 07:30:57;;;;;;;5.60;5.10;;;;;;;;;;5007361;28;98903;-77
2022/12/28 07:33:23;;;;;;;5.13;4.38;;;;;;;;;;5007814;28;100130;-77
2022/12/28 07:35:50;;;;;;;10.15;4.93;;;;;;;;;;5008514;28;98293;-77
2022/12/28 07:38:16;;;;;;;8.50;5.28;;;;;;;;;;5006513;28;99759;-77
2022/12/28 07:40:46;;;;;;;8.18;4.80;;;;;;;;;;5006666;28;99616;-77
2022/12/28 07:43:13;;;;;;;6.55;5.03;;;;;;;;;;5008936;28;99559;-78
2022/12/28 07:45:39;;;;;;;5.68;4.85;;;;;;;;;;5009651;28;99402;-76
2022/12/28 07:48:06;;;;;;;10.57;4.50;;;;;;;;;;5013233;28;98996;-77
2022/12/28 07:50:32;;;;;;;4.78;4.47;;;;;;;;;;5008447;28;100272;-76
2022/12/28 07:53:03;;;;;;;12.35;5.30;;;;;;;;;;5010681;28;98982;-76
2022/12/28 07:55:30;;;;;;;4.57;4.15;;;;;;;;;;5009762;28;98471;-77
2022/12/28 07:57:57;;;;;;;4.53;4.13;;;;;;;;;;5009646;28;99882;-77
2022/12/28 08:00:23;;;;;;;8.38;4.65;;;;;;;;;;5009814;28;100201;-77
2022/12/28 08:02:49;;;;;;;4.00;3.75;;;;;;;;;;5009775;28;98327;-76
2022/12/28 08:05:16;;;;;;;3.75;3.42;;;;;;;;;;5009480;28;99496;-76
2022/12/28 08:07:42;;;;;;;4.60;3.72;;;;;;;;;;5009511;28;100301;-76
2022/12/28 08:10:09;;;;;;;3.70;3.38;;;;;;;;;;5013316;28;98361;-76
2022/12/28 08:12:35;;;;;;;4.45;4.10;;;;;;;;;;5009254;28;99886;-76
2022/12/28 08:15:02;;;;;;;3.90;3.60;;;;;;;;;;5008750;28;98286;-76
2022/12/28 08:17:28;;;;;;;4.15;3.85;;;;;;;;;;5009427;28;99377;-77
2022/12/28 08:19:56;;;;;;;8.35;3.85;;;;;;;;;;5008715;28;100413;-76
2022/12/28 08:22:23;;;;;;;8.98;4.43;;;;;;;;;;5009164;28;98329;-77
2022/12/28 08:24:50;;;;;;;4.85;3.72;;;;;;;;;;5008933;28;99613;-76
2022/12/28 08:27:16;;;;;;;4.20;3.88;;;;;;;;;;5008150;28;99969;-77
2022/12/28 08:29:43;;;;;;;6.55;4.82;;;;;;;;;;5008693;28;98393;-77
2022/12/28 08:32:10;;;;;;;5.00;4.70;;;;;;;;;;5012413;28;98431;-76
2022/12/28 08:34:36;;;;;;;7.93;5.43;;;;;;;;;;5008202;28;98476;-77
2022/12/28 08:37:02;;;;;;;9.13;5.68;;;;;;;;;;5008984;28;98531;-77
2022/12/28 08:39:29;;;;;;;6.95;5.60;;;;;;;;;;5008064;28;99929;-77
2022/12/28 08:41:56;;;;;;;5.45;4.72;;;;;;;;;;5008582;28;98821;-77
2022/12/28 08:44:22;;;;;;;8.55;6.03;;;;;;;;;;5008854;28;98621;-76
2022/12/28 08:46:48;;;;;;;6.68;6.10;;;;;;;;;;5008109;28;99930;-76
2022/12/28 08:49:15;;;;;;;9.98;6.65;;;;;;;;;;5008596;28;98279;-77
2022/12/28 08:51:41;;;;;;;6.88;6.15;;;;;;;;;;5008674;28;99357;-76
2022/12/28 08:54:10;;;;;;;7.28;6.45;;;;;;;;;;5010129;28;99493;-77
2022/12/28 08:56:37;;;;;;;6.80;5.88;;;;;;;;;;5008599;28;98957;-76
2022/12/28 08:59:04;;;;;;;7.18;5.28;;;;;;;;;;5008333;28;99817;-76
2022/12/28 09:01:34;;;;;;;8.50;6.28;;;;;;;;;;5007677;28;98917;-76
2022/12/28 09:04:11;;;;;;;5.85;5.38;;;;;;;;;;5007446;28;99825;-75
2022/12/28 09:06:38;;;;;;;5.82;5.32;;;;;;;;;;5007565;28;99145;-75
2022/12/28 09:09:06;;;;;;;6.20;4.95;;;;;;;;;;5007797;28;98637;-75
2022/12/28 09:11:36;;;;;;;9.38;5.05;;;;;;;;;;5008078;28;99455;-75
2022/12/28 09:14:03;;;;;;;4.80;4.38;;;;;;;;;;5007756;28;98754;-76
2022/12/28 09:16:29;;;;;;;5.00;4.53;;;;;;;;;;5010657;28;98407;-76
2022/12/28 09:18:57;;;;;;;4.97;4.50;;;;;;;;;;5008004;28;100192;-76
2022/12/28 09:21:25;;;;;;;5.13;4.70;;;;;;;;;;5008208;28;98290;-76
2022/12/28 09:23:53;;;;;;;7.45;4.80;;;;;;;;;;5007561;28;98232;-76
2022/12/28 09:26:20;;;;;;;8.23;5.40;;;;;;;;;;5008009;28;100737;-76
2022/12/28 09:28:48;;;;;;;8.35;5.78;;;;;;;;;;5006876;28;98313;-76
2022/12/28 09:31:15;;;;;;;9.90;6.47;;;;;;;;;;5007505;28;99715;-77
2022/12/28 09:34:00;;;;;;;8.02;6.47;;;;;;;;;;5007786;28;99923;-75
2022/12/28 09:36:46;;;;;;;9.35;6.75;;;;;;;;;;5010248;28;98328;-76
2022/12/28 09:39:16;;;;;;;11.93;7.28;;;;;;;;;;5007572;28;99103;-77
2022/12/28 09:41:51;;;;;;;7.53;6.22;;;;;;;;;;5007599;28;98399;-76
2022/12/28 09:44:17;;;;;;;9.55;7.30;;;;;;;;;;5007073;28;99629;-76
2022/12/28 09:46:48;;;;;;;15.77;8.20;;;;;;;;;;5007504;28;100067;-77
2022/12/28 09:49:15;;;;;;;11.10;7.63;;;;;;;;;;5007787;28;98981;-77
2022/12/28 09:51:44;;;;;;;14.25;8.38;;;;;;;;;;5006981;28;99454;-77
2022/12/28 09:54:11;;;;;;;22.17;10.07;;;;;;;;;;5006724;28;99932;-77
2022/12/28 09:56:40;;;;;;;10.90;8.15;;;;;;;;;;5007253;28;98385;-78
2022/12/28 09:59:09;;;;;;;8.63;7.57;;;;;;;;;;5010241;28;99798;-77
2022/12/28 10:01:38;;;;;;;16.90;9.98;;;;;;;;;;5007381;28;98325;-79
2022/12/28 10:04:05;;;;;;;11.38;8.93;;;;;;;;;;5006432;28;98522;-78
2022/12/28 10:06:34;;;;;;;10.75;8.63;;;;;;;;;;5006627;28;99202;-79
2022/12/28 10:09:01;;;;;;;10.77;8.40;;;;;;;;;;5006936;28;98376;-78
2022/12/28 10:11:33;;;;;;;15.73;9.63;;;;;;;;;;5006758;28;99540;-79
2022/12/28 10:14:01;;;;;;;13.95;9.27;;;;;;;;;;5007206;28;99028;-79
2022/12/28 10:16:31;;;;;;;13.93;8.95;;;;;;;;;;5007129;28;98425;-78
2022/12/28 10:18:58;;;;;;;12.05;9.52;;;;;;;;;;5006028;28;99480;-78
2022/12/28 10:21:26;;;;;;;12.82;9.93;;;;;;;;;;5010147;28;100081;-77
2022/12/28 10:23:59;;;;;;;13.18;10.02;;;;;;;;;;5007508;28;99641;-78
2022/12/28 10:26:45;;;;;;;10.00;9.00;;;;;;;;;;5005177;28;99146;-77
2022/12/28 10:29:17;;;;;;;17.90;10.05;;;;;;;;;;5006867;28;98291;-78
2022/12/28 10:31:54;;;;;;;12.50;11.17;;;;;;;;;;5006699;28;98687;-77
2022/12/28 10:34:21;;;;;;;15.35;9.90;;;;;;;;;;5006268;28;100110;-78
2022/12/28 10:36:48;;;;;;;16.35;9.00;;;;;;;;;;5007039;28;98516;-77
2022/12/28 10:39:16;;;;;;;10.57;8.63;;;;;;;;;;5006758;28;99951;-77
2022/12/28 10:41:44;;;;;;;14.32;8.13;;;;;;;;;;5006033;28;99169;-77
2022/12/28 10:44:13;;;;;;;14.75;9.25;;;;;;;;;;5009592;28;98436;-77
2022/12/28 10:47:14;;;;;;;11.82;10.48;;;;;;;;;;5005451;28;100118;-76
2022/12/28 10:49:46;;;;;;;18.85;10.68;;;;;;;;;;5006622;28;98207;-77
2022/12/28 10:52:33;;;;;;;14.13;9.63;;;;;;;;;;5007009;28;99478;-77
2022/12/28 10:54:59;;;;;;;14.63;8.13;;;;;;;;;;5006405;28;99130;-77
2022/12/28 10:57:33;;;;;;;11.93;9.70;;;;;;;;;;5006261;28;98286;-77
2022/12/28 11:00:13;;;;;;;14.02;9.98;;;;;;;;;;5006554;28;98481;-77
2022/12/28 11:02:42;;;;;;;12.07;9.77;;;;;;;;;;5006486;28;100145;-77
2022/12/28 11:05:17;;;;;;;13.85;9.70;;;;;;;;;;5006823;28;98264;-77
2022/12/28 11:07:44;;;;;;;9.80;8.80;;;;;;;;;;5008982;28;98710;-77
2022/12/28 11:10:14;;;;;;;9.77;8.65;;;;;;;;;;5005457;28;98524;-78
2022/12/28 11:12:43;;;;;;;9.40;8.38;;;;;;;;;;5006470;28;99291;-77
2022/12/28 11:15:13;;;;;;;11.57;7.65;;;;;;;;;;5006207;28;98975;-77
2022/12/28 11:17:40;;;;;;;8.77;7.57;;;;;;;;;;5007380;28;98261;-77
2022/12/28 11:20:17;;;;;;;7.65;6.90;;;;;;;;;;5010349;28;99599;-76
2022/12/28 11:22:44;;;;;;;7.55;6.95;;;;;;;;;;5009473;28;99248;-77
2022/12/28 11:25:14;;;;;;;6.65;6.10;;;;;;;;;;5010454;28;98295;-78
2022/12/28 11:27:40;;;;;;;6.78;6.28;;;;;;;;;;5010639;28;98721;-78
2022/12/28 11:30:11;;;;;;;7.72;6.05;;;;;;;;;;5012802;28;99004;-76
2022/12/28 11:33:12;;;;;;;6.50;6.00;;;;;;;;;;5010006;28;98817;-78
2022/12/28 11:35:38;;;;;;;8.07;6.15;;;;;;;;;;4994629;28;99133;-78
2022/12/28 11:38:05;;;;;;;7.50;5.30;;;;;;;;;;5009903;28;98291;-77
2022/12/28 11:40:41;;;;;;;5.63;5.13;;;;;;;;;;5009415;28;98654;-77
2022/12/28 11:43:27;;;;;;;5.88;5.30;;;;;;;;;;5009148;28;99943;-78
2022/12/28 11:45:55;;;;;;;9.88;5.45;;;;;;;;;;4998551;28;98313;-77
2022/12/28 11:48:37;;;;;;;4.82;4.22;;;;;;;;;;5009784;28;99506;-79
2022/12/28 11:51:04;;;;;;;5.47;5.07;;;;;;;;;;5012228;28;99149;-77
2022/12/28 11:53:30;;;;;;;5.00;4.70;;;;;;;;;;5009688;28;99275;-76
2022/12/28 11:56:04;;;;;;;5.00;4.53;;;;;;;;;;5009516;28;100044;-77
2022/12/28 11:58:39;;;;;;;8.55;4.40;;;;;;;;;;5008801;28;98261;-78
2022/12/28 12:01:24;;;;;;;4.70;4.30;;;;;;;;;;5008901;28;99481;-77
2022/12/28 12:03:57;;;;;;;5.65;4.35;;;;;;;;;;5008798;28;100248;-78
2022/12/28 12:06:43;;;;;;;5.00;4.22;;;;;;;;;;5009522;28;99210;-76
2022/12/28 12:09:27;;;;;;;5.85;4.80;;;;;;;;;;5009062;28;99451;-77
2022/12/28 12:11:57;;;;;;;7.40;4.28;;;;;;;;;;5008844;28;99994;-78
2022/12/28 12:14:50;;;;;;;6.65;4.70;;;;;;;;;;5012570;28;98568;-77
2022/12/28 12:17:22;;;;;;;5.22;3.78;;;;;;;;;;4985912;28;100127;-78
2022/12/28 12:19:54;;;;;;;4.75;3.38;;;;;;;;;;5009191;28;98290;-78
2022/12/28 12:22:22;;;;;;;3.38;3.17;;;;;;;;;;5009704;28;99683;-78
2022/12/28 12:24:53;;;;;;;8.20;3.67;;;;;;;;;;5008589;28;100415;-77
2022/12/28 12:27:26;;;;;;;4.13;3.72;;;;;;;;;;5007939;28;98250;-78
2022/12/28 12:29:58;;;;;;;4.78;4.30;;;;;;;;;;5008725;28;98583;-78
2022/12/28 12:32:45;;;;;;;8.20;4.53;;;;;;;;;;5008276;28;100344;-77
2022/12/28 12:35:14;;;;;;;4.55;4.15;;;;;;;;;;5008810;28;98115;-77
2022/12/28 12:37:43;;;;;;;8.57;4.18;;;;;;;;;;5011848;28;99644;-77
2022/12/28 12:40:25;;;;;;;7.90;3.60;;;;;;;;;;5008517;28;98297;-77
2022/12/28 12:43:10;;;;;;;4.53;3.70;;;;;;;;;;5009092;28;98872;-76
2022/12/28 12:45:51;;;;;;;4.13;3.38;;;;;;;;;;5008362;28;99545;-76
2022/12/28 12:48:26;;;;;;;3.20;2.92;;;;;;;;;;5009165;28;98254;-76
2022/12/28 12:50:56;;;;;;;4.88;3.50;;;;;;;;;;5008938;28;99541;-76
2022/12/28 12:53:39;;;;;;;6.38;3.50;;;;;;;;;;5007109;28;100683;-76
2022/12/28 12:56:28;;;;;;;5.15;3.42;;;;;;;;;;5008760;28;98675;-77
2022/12/28 12:58:54;;;;;;;7.40;4.10;;;;;;;;;;5008744;28;99801;-76
2022/12/28 13:01:26;;;;;;;5.35;3.92;;;;;;;;;;5010779;28;99388;-76
2022/12/28 13:03:54;;;;;;;5.13;3.88;;;;;;;;;;5008771;28;99358;-77
2022/12/28 13:06:22;;;;;;;5.60;3.70;;;;;;;;;;5008316;28;99245;-76
2022/12/28 13:08:51;;;;;;;6.43;3.90;;;;;;;;;;5006765;28;98358;-76
2022/12/28 13:11:18;;;;;;;6.40;4.43;;;;;;;;;;5009181;28;99584;-76
2022/12/28 13:13:46;;;;;;;10.02;4.30;;;;;;;;;;5007641;28;99250;-76
2022/12/28 13:16:15;;;;;;;5.00;3.65;;;;;;;;;;5007557;28;98418;-76
2022/12/28 13:18:51;;;;;;;6.55;3.75;;;;;;;;;;5007328;28;98749;-76
2022/12/28 13:21:19;;;;;;;11.07;4.47;;;;;;;;;;5007337;28;99072;-76
2022/12/28 13:23:45;;;;;;;4.72;4.22;;;;;;;;;;5011164;28;98312;-76
2022/12/28 13:26:13;;;;;;;6.05;3.90;;;;;;;;;;5007749;28;100067;-75
2022/12/28 13:28:51;;;;;;;9.90;3.53;;;;;;;;;;5007609;28;99051;-75
2022/12/28 13:31:19;;;;;;;6.70;3.70;;;;;;;;;;5008071;28;98983;-75
2022/12/28 13:33:52;;;;;;;10.93;4.07;;;;;;;;;;5007901;28;100346;-77
2022/12/28 13:36:19;;;;;;;8.82;3.33;;;;;;;;;;5007408;28;98390;-77
2022/12/28 13:38:45;;;;;;;11.85;3.95;;;;;;;;;;5007722;28;99454;-75
2022/12/28 13:41:24;;;;;;;9.20;3.17;;;;;;;;;;5007193;28;100420;-74
2022/12/28 13:43:53;;;;;;;8.07;4.55;;;;;;;;;;5006439;28;98317;-76
2022/12/28 13:46:19;;;;;;;11.85;4.00;;;;;;;;;;5010900;28;99823;-75
2022/12/28 13:48:48;;;;;;;8.10;3.67;;;;;;;;;;5007449;28;98271;-75
2022/12/28 13:51:15;;;;;;;19.00;4.00;;;;;;;;;;5007001;28;100373;-76
2022/12/28 13:53:44;;;;;;;14.18;3.83;;;;;;;;;;5007361;28;100079;-76
2022/12/28 13:56:12;;;;;;;5.05;3.15;;;;;;;;;;5007212;28;98701;-76
2022/12/28 13:58:47;;;;;;;6.60;3.10;;;;;;;;;;5007990;28;99469;-75
2022/12/28 14:01:16;;;;;;;9.50;3.47;;;;;;;;;;5006282;28;99037;-76
2022/12/28 14:03:43;;;;;;;10.20;3.80;;;;;;;;;;5006420;28;98412;-75
2022/12/28 14:06:12;;;;;;;7.68;3.03;;;;;;;;;;5010451;28;99457;-75
2022/12/28 14:08:39;;;;;;;7.45;3.17;;;;;;;;;;5005741;28;98284;-75
2022/12/28 14:11:06;;;;;;;10.45;4.40;;;;;;;;;;5007008;28;98809;-75
2022/12/28 14:13:32;;;;;;;8.63;3.35;;;;;;;;;;5006879;28;99148;-75
2022/12/28 14:15:59;;;;;;;9.15;3.53;;;;;;;;;;5007413;28;98357;-75
2022/12/28 14:18:28;;;;;;;9.77;3.47;;;;;;;;;;5006598;28;99435;-75
2022/12/28 14:20:56;;;;;;;6.13;2.70;;;;;;;;;;5006705;28;99122;-75
2022/12/28 14:23:28;;;;;;;8.13;3.05;;;;;;;;;;5007345;28;98254;-75
2022/12/28 14:25:56;;;;;;;8.10;3.03;;;;;;;;;;5006444;28;98723;-75
2022/12/28 14:28:30;;;;;;;8.38;2.92;;;;;;;;;;5010401;28;100137;-75
2022/12/28 14:30:56;;;;;;;8.57;3.45;;;;;;;;;;5007375;28;99499;-75
2022/12/28 14:33:25;;;;;;;4.78;3.03;;;;;;;;;;5005188;28;99949;-75
2022/12/28 14:35:53;;;;;;;7.75;3.53;;;;;;;;;;5007155;28;98364;-74
2022/12/28 14:38:21;;;;;;;12.18;3.63;;;;;;;;;;5006962;28;99465;-75
2022/12/28 14:40:51;;;;;;;6.50;2.83;;;;;;;;;;5006624;28;100201;-75
2022/12/28 14:43:21;;;;;;;7.95;3.63;;;;;;;;;;5006991;28;98582;-76
2022/12/28 14:45:47;;;;;;;7.30;2.72;;;;;;;;;;5006051;28;99681;-76
2022/12/28 14:48:38;;;;;;;15.25;3.80;;;;;;;;;;5006281;28;99230;-76
2022/12/28 14:51:22;;;;;;;7.63;3.40;;;;;;;;;;5010219;28;98502;-76
2022/12/28 14:54:07;;;;;;;18.63;3.60;;;;;;;;;;5005311;28;100107;-75
2022/12/28 14:56:34;;;;;;;10.55;4.38;;;;;;;;;;5006834;28;98361;-76
2022/12/28 14:59:00;;;;;;;7.15;3.45;;;;;;;;;;5006111;28;99090;-76
2022/12/28 15:01:38;;;;;;;10.18;3.15;;;;;;;;;;5005766;28;99137;-76
2022/12/28 15:04:05;;;;;;;7.20;2.83;;;;;;;;;;5006657;28;98672;-76
2022/12/28 15:06:32;;;;;;;14.60;3.65;;;;;;;;;;5005801;28;99842;-76
2022/12/28 15:09:00;;;;;;;7.07;3.08;;;;;;;;;;5006235;28;99992;-76
2022/12/28 15:11:27;;;;;;;10.73;3.58;;;;;;;;;;5006554;28;98336;-75
2022/12/28 15:13:55;;;;;;;10.35;3.05;;;;;;;;;;5008986;28;98535;-76